Terminal Aerodrome Forecast
Issued by NWS

Home | Current Version | Previous Version | Graphics & Text | Print | Product List | Glossary On
Versions: 1 2 3 4 5 6 7 8 9 10 11 12 13 14 15 16 17 18 19 20
000
FTUS43 KLOT 222058 AAA
TAFDPA
TAF AMD
KDPA 222058Z 2221/2318 21006KT P6SM FEW250
     FM230000 16004KT P6SM FEW250
      TEMPO 2309/2311 5SM BR
     FM231400 20005KT P6SM FEW045=

USA.gov is the U.S. government's official web portal to all federal, state and local government web resources and services.